Create Tblcommutelog Verified Points Advance Search
| # | Trip ID | Id Commuter | Trip Date | Trip Num | Current Lat | Current Lng | Delta Distance | Current Time | Activity | Activity Confidence | Current Speed | |
|---|---|---|---|---|---|---|---|---|---|---|---|---|
| 73881 | 250325_669170_16518531_1758 | 669170 | (not set) | (not set) | 39.476411893745 | -77.975923364012 | 13.9668 | 2025-03-25 22:29:40.195 | in_vehicle | 100 | 6.1780825592103 | |
| 73882 | 250325_778808_16646462_1808 | 778808 | (not set) | (not set) | 38.876640198631 | -77.00980383543 | 6.0934 | 2025-03-25 22:29:41.42 | on_foot | 100 | 0.70185163661073 | |
| 73883 | 250325_700992_16557105_1706 | 700992 | (not set) | (not set) | 39.197474445865 | -77.25235281972 | 20.006 | 2025-03-25 22:29:42.478 | on_bicycle | 100 | 2.18602197645 | |
| 73884 | 250325_705032_16561783_1718 | 705032 | (not set) | (not set) | 39.13154757524 | -77.244636649812 | 26.4687 | 2025-03-25 22:29:44.286 | in_vehicle | 100 | 6.2093753073395 | |
| 73885 | 250325_766975_16633916_1814 | 766975 | (not set) | (not set) | 39.040196769426 | -77.109416108591 | 2.6772 | 2025-03-25 22:29:44.309 | in_vehicle | 100 | 6.19149373698 | |
| 73886 | 250325_771996_16639215_1816 | 771996 | (not set) | (not set) | 38.894778734241 | -77.092780894829 | 3.3097 | 2025-03-25 22:29:45.255 | in_vehicle | 100 | 5.6014019151162 | |
| 73887 | 250325_780813_16648491_1809 | 780813 | (not set) | (not set) | 38.868864736023 | -77.053665326174 | 2.5171 | 2025-03-25 22:29:47.216 | on_foot | 100 | 0.50068397006625 | |
| 73888 | 250325_780724_16648401_1811 | 780724 | (not set) | (not set) | 38.910283650017 | -77.094946411623 | 3.1431 | 2025-03-25 22:29:47.277 | on_bicycle | 100 | 3.6388995681601 | |
| 73889 | 250325_772317_16639583_1800 | 772317 | (not set) | (not set) | 38.936665774211 | -77.048150043918 | 4.6988 | 2025-03-25 22:29:47.385 | unknown | 100 | 2.6241204502579 | |
| 73890 | 250325_770910_16638064_1739 | 770910 | (not set) | (not set) | 38.905379498984 | -77.022226152068 | 8.1582 | 2025-03-25 22:26:49.334 | on_foot | 100 | -0.44703925898772 | |
| 73891 | 250325_766975_16633916_1814 | 766975 | (not set) | (not set) | 39.030217831714 | -77.104738663626 | 1.9439 | 2025-03-25 22:26:51.306 | in_vehicle | 100 | 4.00547176053 | |
| 73892 | 250325_700992_16557105_1706 | 700992 | (not set) | (not set) | 39.198449299335 | -77.252021942243 | 19.816 | 2025-03-25 22:26:54.68 | on_foot | 100 | -0.44703925898772 | |
| 73893 | 250325_783205_16650924_1755 | 783205 | (not set) | (not set) | 39.120185291747 | -77.164748473586 | 16.0864 | 2025-03-25 22:26:55.291 | in_vehicle | 100 | 3.0353965685266 | |
| 73894 | 250325_766975_16633916_1814 | 766975 | (not set) | (not set) | 39.030399115711 | -77.10483677886 | 1.9574 | 2025-03-25 22:26:56.277 | in_vehicle | 100 | 0.76890752545889 | |
| 73895 | 250325_771996_16639215_1816 | 771996 | (not set) | (not set) | 38.899174575789 | -77.072902525768 | 2.1853 | 2025-03-25 22:26:57.234 | in_vehicle | 100 | 3.3617352275877 | |
| 73896 | 250325_782405_16650093_1722 | 782405 | (not set) | (not set) | 39.225579519985 | -76.699496870076 | 6.868 | 2025-03-25 22:26:59.163 | in_vehicle | 100 | 7.4342628769659 | |
| 73897 | 250325_781550_16649240_1819 | 781550 | (not set) | (not set) | 38.964314779391 | -77.010011716053 | 4.0581 | 2025-03-25 22:27:00.208 | in_vehicle | 100 | 12.776382021869 | |
| 73898 | 250325_776618_16644147_1746 | 776618 | (not set) | (not set) | 38.88278017415 | -77.12007744122 | 6.8688 | 2025-03-25 22:27:00.214 | in_vehicle | 100 | 2.8252881168024 | |
| 73899 | 250325_778808_16646462_1808 | 778808 | (not set) | (not set) | 38.876497719925 | -77.007526868098 | 5.9652 | 2025-03-25 22:27:03.512 | on_foot | 100 | 0.52303593301564 | |
| 73900 | 250325_731669_16595792_1640 | 731669 | (not set) | (not set) | 38.735363965731 | -77.515905724652 | 34.7583 | 2025-03-25 22:27:04.196 | in_vehicle | 100 | 5.6192834854757 |